Time;durP1;ratioP1;P1;durP2;ratioP2;P2;SDS_P1;SDS_P2;PMS_P1;PMS_P2;Temp;Humidity;BMP_temperature;BMP_pressure;BME280_temperature;BME280_humidity;BME280_pressure;Samples;Min_cycle;Max_cycle;Signal;HPM_P1;HPM_P2
2022/01/08 00:00:30;;;;;;;4.22;1.40;;;;;;;20.33;34.87;100983.38;7309715;19;129881;-61
2022/01/08 00:02:57;;;;;;;5.53;1.35;;;;;;;20.31;34.74;100983.66;7311664;19;131743;-61
2022/01/08 00:05:24;;;;;;;3.38;1.15;;;;;;;20.26;34.56;100992.75;7310880;19;131065;-60
2022/01/08 00:07:51;;;;;;;4.10;1.23;;;;;;;20.24;34.92;100988.56;7310133;19;129123;-62
2022/01/08 00:10:17;;;;;;;4.63;1.45;;;;;;;20.21;35.00;101001.00;7311988;19;129055;-61
2022/01/08 00:12:44;;;;;;;6.25;1.23;;;;;;;20.17;34.61;100999.84;7310297;19;131879;-61
2022/01/08 00:15:11;;;;;;;4.80;1.15;;;;;;;20.17;34.83;101007.34;7314243;19;131040;-61
2022/01/08 00:17:38;;;;;;;5.35;1.52;;;;;;;20.15;34.89;101004.81;7309040;19;136182;-61
2022/01/08 00:20:06;;;;;;;4.90;1.38;;;;;;;20.13;34.67;101009.78;7313308;19;128907;-62
2022/01/08 00:22:33;;;;;;;3.90;1.20;;;;;;;20.11;34.71;101009.19;7309312;19;131221;-61
2022/01/08 00:25:00;;;;;;;3.38;1.42;;;;;;;20.10;35.13;101013.06;7311516;19;131424;-62
2022/01/08 00:27:26;;;;;;;5.55;1.10;;;;;;;20.08;34.70;101012.47;7310480;19;131259;-61
2022/01/08 00:29:53;;;;;;;7.22;1.92;;;;;;;20.06;34.87;101014.69;7309833;19;133666;-61
2022/01/08 00:32:20;;;;;;;5.18;1.05;;;;;;;20.05;34.87;101018.56;7311651;19;132098;-61
2022/01/08 00:34:47;;;;;;;3.90;1.40;;;;;;;20.02;34.96;101022.66;7308791;19;131140;-60
2022/01/08 00:37:14;;;;;;;8.05;1.33;;;;;;;20.00;34.95;101024.84;7310750;19;128807;-61
2022/01/08 00:39:41;;;;;;;2.92;1.10;;;;;;;19.98;34.99;101025.06;7308351;19;129784;-61
2022/01/08 00:42:07;;;;;;;5.13;1.30;;;;;;;19.95;35.24;101020.03;7311008;19;131974;-61
2022/01/08 00:44:34;;;;;;;3.95;1.05;;;;;;;19.95;35.32;101028.34;7308314;19;131129;-61
2022/01/08 00:47:01;;;;;;;3.28;1.15;;;;;;;19.94;35.10;101026.66;7312468;19;129429;-61
2022/01/08 00:49:28;;;;;;;3.58;1.20;;;;;;;19.92;35.05;101034.44;7307723;19;129009;-61
2022/01/08 00:51:55;;;;;;;4.10;1.13;;;;;;;19.90;35.31;101030.19;7310007;19;131988;-61
2022/01/08 00:54:21;;;;;;;4.80;1.20;;;;;;;19.87;35.31;101014.06;7312903;19;131360;-62
2022/01/08 00:56:48;;;;;;;5.47;1.23;;;;;;;19.85;35.37;101014.31;7308937;19;129037;-59
2022/01/08 00:59:15;;;;;;;5.88;1.17;;;;;;;19.85;35.03;101014.31;7312080;19;130418;-61
2022/01/08 01:01:42;;;;;;;6.43;1.48;;;;;;;19.82;35.32;101020.34;7306481;19;130975;-61
2022/01/08 01:04:08;;;;;;;5.35;1.35;;;;;;;19.80;34.93;101023.41;7312473;19;131057;-61
2022/01/08 01:06:35;;;;;;;2.00;1.23;;;;;;;19.80;35.19;101039.22;7306970;19;130144;-62
2022/01/08 01:09:02;;;;;;;3.53;1.15;;;;;;;19.80;35.34;101028.13;7312638;19;129241;-61
2022/01/08 01:11:29;;;;;;;3.60;1.20;;;;;;;19.78;35.14;101025.56;7307475;19;132013;-61
2022/01/08 01:13:55;;;;;;;4.20;1.42;;;;;;;19.77;35.19;101023.06;7310267;19;132404;-62
2022/01/08 01:16:22;;;;;;;6.20;1.10;;;;;;;19.75;35.43;101026.09;7307361;19;128887;-61
2022/01/08 01:18:49;;;;;;;4.85;1.40;;;;;;;19.74;35.41;101015.22;7307327;19;129214;-61
2022/01/08 01:21:16;;;;;;;4.50;1.20;;;;;;;19.72;34.94;101020.19;7311136;19;131928;-61
2022/01/08 01:23:44;;;;;;;4.95;1.20;;;;;;;19.71;35.00;101026.84;7307577;19;131732;-62
2022/01/08 01:26:16;;;;;;;8.00;1.42;;;;;;;19.68;35.57;101023.50;7311473;19;129815;-61
2022/01/08 01:28:57;;;;;;;5.20;1.58;;;;;;;19.67;35.14;101034.81;7306524;19;129953;-61
2022/01/08 01:42:53;;;;;;;2.58;0.90;;;;;;;19.60;35.30;101028.59;7307541;19;132106;-61
2022/01/08 01:47:43;;;;;;;4.22;1.08;;;;;;;19.56;35.23;101047.69;7308282;19;129591;-60
2022/01/08 01:50:10;;;;;;;3.95;1.40;;;;;;;19.55;35.15;101057.13;7310329;19;129064;-62
2022/01/08 01:52:37;;;;;;;8.02;1.35;;;;;;;19.53;35.47;101054.56;7317268;19;132043;-61
2022/01/08 01:55:05;;;;;;;4.00;1.25;;;;;;;19.52;35.02;101060.38;7312921;19;131704;-62
2022/01/08 01:57:32;;;;;;;3.63;1.17;;;;;;;19.52;35.05;101065.94;7317604;19;128946;-61
2022/01/08 01:59:59;;;;;;;4.90;1.38;;;;;;;19.50;35.25;101057.00;7313147;19;128900;-61
2022/01/08 02:02:26;;;;;;;2.70;1.17;;;;;;;19.49;35.51;101071.97;7316397;19;131402;-61
2022/01/08 02:04:53;;;;;;;3.92;1.23;;;;;;;19.48;35.50;101086.94;7314603;19;131864;-61
2022/01/08 02:07:23;;;;;;;4.93;1.50;;;;;;;19.47;35.22;101083.31;7314767;19;131255;-62
2022/01/08 02:09:50;;;;;;;4.85;1.20;;;;;;;19.46;35.42;101078.00;7317474;19;129555;-61
2022/01/08 02:12:18;;;;;;;3.67;1.40;;;;;;;19.45;35.31;101081.88;7314672;19;132361;-61
2022/01/08 02:14:46;;;;;;;4.00;1.15;;;;;;;19.44;35.36;101077.44;7317713;19;131421;-61
2022/01/08 02:17:13;;;;;;;4.03;1.30;;;;;;;19.43;35.17;101072.97;7313184;19;130011;-62
2022/01/08 02:19:41;;;;;;;2.13;1.10;;;;;;;19.42;35.09;101068.50;7314782;19;128908;-61
2022/01/08 02:22:15;;;;;;;8.68;1.50;;;;;;;19.41;35.33;101075.16;7315999;19;131225;-61
2022/01/08 02:24:45;;;;;;;3.30;1.13;;;;;;;19.41;35.42;101075.16;7313930;19;131208;-61
2022/01/08 02:27:13;;;;;;;4.80;1.35;;;;;;;19.37;35.30;101064.53;7316061;19;129717;-62
2022/01/08 02:29:40;;;;;;;2.50;1.10;;;;;;;19.37;35.35;101075.63;7313267;19;136440;-61
2022/01/08 02:32:15;;;;;;;4.70;1.35;;;;;;;19.37;35.61;101070.09;7316136;19;131145;-61
2022/01/08 02:34:44;;;;;;;4.00;1.13;;;;;;;19.35;35.66;101074.22;7312235;19;131725;-61
2022/01/08 02:37:14;;;;;;;3.40;1.23;;;;;;;19.34;35.36;101066.97;7316007;19;128911;-63
2022/01/08 02:39:43;;;;;;;2.08;1.10;;;;;;;19.32;35.33;101067.19;7312842;19;128985;-61
2022/01/08 02:42:13;;;;;;;4.70;1.30;;;;;;;19.31;35.41;101064.69;7312009;19;131271;-61
2022/01/08 02:44:41;;;;;;;3.33;1.23;;;;;;;19.31;35.15;101059.13;7315423;19;131974;-61
2022/01/08 02:47:10;;;;;;;4.25;1.13;;;;;;;19.30;35.21;101060.22;7312171;19;129040;-62
2022/01/08 02:49:36;;;;;;;1.73;1.00;;;;;;;19.29;35.17;101067.72;7315321;19;128845;-61
2022/01/08 02:52:04;;;;;;;2.50;1.15;;;;;;;19.29;35.10;101072.41;7310494;19;131169;-61
2022/01/08 02:54:31;;;;;;;2.25;1.10;;;;;;;19.27;35.26;101069.91;7315880;19;133031;-61
2022/01/08 02:56:58;;;;;;;2.50;1.20;;;;;;;19.25;35.18;101077.63;7312409;19;130168;-61
2022/01/08 02:59:24;;;;;;;3.58;1.30;;;;;;;19.25;35.30;101074.00;7314492;19;128877;-61
2022/01/08 03:01:53;;;;;;;5.65;1.38;;;;;;;19.24;35.19;101067.59;7313468;19;131332;-61
2022/01/08 03:04:21;;;;;;;3.97;1.10;;;;;;;19.23;35.16;101074.25;7313064;19;131050;-61
2022/01/08 03:06:48;;;;;;;3.92;1.10;;;;;;;19.22;35.56;101069.78;7313747;19;131164;-61
2022/01/08 03:09:14;;;;;;;3.35;1.23;;;;;;;19.22;35.52;101078.09;7311856;19;128908;-62
2022/01/08 03:11:43;;;;;;;4.07;1.20;;;;;;;19.21;35.18;101073.63;7314775;19;131284;-61
2022/01/08 03:14:10;;;;;;;3.28;1.00;;;;;;;19.20;35.52;101072.78;7309839;19;131938;-62
2022/01/08 03:16:37;;;;;;;2.85;1.15;;;;;;;19.20;35.25;101078.34;7315413;19;128788;-62
2022/01/08 03:19:09;;;;;;;2.67;1.08;;;;;;;19.18;35.55;101068.59;7310524;19;128891;-61
2022/01/08 03:21:41;;;;;;;4.15;1.40;;;;;;;19.18;35.63;101076.91;7314399;19;131149;-62
2022/01/08 03:24:10;;;;;;;4.50;1.20;;;;;;;19.17;35.19;101075.22;7310887;19;131530;-61
2022/01/08 03:26:37;;;;;;;9.23;1.17;;;;;;;19.15;35.50;101081.00;7313112;19;129063;-59
2022/01/08 03:29:04;;;;;;;2.95;1.35;;;;;;;19.16;35.37;101076.28;7313540;19;129287;-62
2022/01/08 03:31:30;;;;;;;2.88;1.20;;;;;;;19.16;35.29;101079.06;7310894;19;135014;-61
2022/01/08 03:33:57;;;;;;;2.47;1.00;;;;;;;19.14;35.15;101081.25;7315326;19;131816;-61
2022/01/08 03:36:24;;;;;;;3.25;1.33;;;;;;;19.13;35.60;101072.09;7310993;19;128995;-61
2022/01/08 03:38:52;;;;;;;3.47;1.05;;;;;;;19.12;35.63;101056.53;7314333;19;130304;-61
2022/01/08 03:41:20;;;;;;;3.97;1.08;;;;;;;19.11;35.15;101071.50;7311948;19;131231;-61
2022/01/08 03:43:47;;;;;;;1.95;1.10;;;;;;;19.12;35.14;101077.88;7312309;19;131114;-61
2022/01/08 03:46:14;;;;;;;2.42;1.10;;;;;;;19.11;35.34;101079.81;7310153;19;129374;-61
2022/01/08 03:48:58;;;;;;;5.30;1.52;;;;;;;19.10;35.17;101064.25;7310655;19;130236;-62
2022/01/08 03:51:25;;;;;;;4.00;1.25;;;;;;;19.10;35.38;101074.50;7314278;19;131106;-61
2022/01/08 03:53:51;;;;;;;4.07;0.85;;;;;;;19.10;35.45;101074.50;7309994;19;131681;-61
2022/01/08 03:56:18;;;;;;;3.92;1.35;;;;;;;19.08;35.21;101078.34;7314712;19;128962;-61
2022/01/08 03:58:45;;;;;;;3.92;1.10;;;;;;;19.07;35.35;101073.06;7309645;19;129577;-61
2022/01/08 04:01:12;;;;;;;2.10;0.90;;;;;;;19.05;35.20;101073.31;7312606;19;131105;-62
2022/01/08 04:03:38;;;;;;;1.95;1.00;;;;;;;19.06;35.57;101079.69;7310988;19;131849;-61
2022/01/08 04:06:05;;;;;;;2.85;1.20;;;;;;;19.05;35.41;101083.56;7312445;19;128833;-62
2022/01/08 04:08:32;;;;;;;3.10;1.30;;;;;;;19.04;35.28;101079.97;7310132;19;129337;-61
2022/01/08 04:10:59;;;;;;;2.70;1.02;;;;;;;19.03;35.22;101081.03;7311112;19;131170;-61
2022/01/08 04:13:26;;;;;;;3.15;1.20;;;;;;;19.02;35.58;101082.13;7311559;19;131254;-61
2022/01/08 04:15:58;;;;;;;2.22;1.08;;;;;;;19.02;35.27;101079.34;7309626;19;128853;-61
2022/01/08 04:18:25;;;;;;;2.75;1.17;;;;;;;19.01;35.53;101088.75;7312129;19;129100;-61
2022/01/08 04:21:13;;;;;;;2.25;0.95;;;;;;;19.00;35.09;101075.97;7308790;19;131085;-61
2022/01/08 04:23:38;;;;;;;3.00;1.20;;;;;;;19.00;35.45;101089.84;7312175;19;131017;-61
2022/01/08 04:26:05;;;;;;;2.20;0.90;;;;;;;18.99;35.45;101092.88;7311277;19;131978;-61
2022/01/08 04:28:32;;;;;;;7.20;1.40;;;;;;;18.98;35.24;101094.78;7309867;19;129123;-61
2022/01/08 04:30:59;;;;;;;4.82;0.93;;;;;;;18.99;35.32;101101.19;7312834;19;131083;-61
2022/01/08 04:33:25;;;;;;;2.45;1.20;;;;;;;18.97;35.10;101112.50;7309395;19;132452;-61
2022/01/08 04:35:52;;;;;;;3.45;1.20;;;;;;;18.96;35.44;101108.03;7313164;19;129017;-61
2022/01/08 04:38:19;;;;;;;2.10;1.10;;;;;;;18.95;35.52;101108.28;7309230;19;129172;-61
2022/01/08 04:40:46;;;;;;;2.45;0.82;;;;;;;18.94;35.31;101113.00;7312626;19;132176;-62
2022/01/08 04:43:13;;;;;;;1.10;0.80;;;;;;;18.93;35.53;101119.63;7310131;19;131097;-61
2022/01/08 04:45:39;;;;;;;4.45;0.93;;;;;;;18.91;35.51;101119.03;7311634;19;129027;-62
2022/01/08 04:48:06;;;;;;;3.08;0.93;;;;;;;18.89;35.34;101123.97;7309651;19;129123;-61
2022/01/08 04:50:33;;;;;;;2.25;1.00;;;;;;;18.89;35.47;101129.53;7310600;19;131237;-61
2022/01/08 04:53:00;;;;;;;4.25;1.20;;;;;;;18.88;35.25;101131.47;7311720;19;131170;-61
2022/01/08 04:55:27;;;;;;;3.17;1.00;;;;;;;18.87;35.30;101127.00;7309383;19;129178;-62
2022/01/08 04:57:54;;;;;;;2.53;0.90;;;;;;;18.87;35.50;101123.38;7312192;19;129712;-61
2022/01/08 05:00:21;;;;;;;3.67;1.17;;;;;;;18.86;35.51;101124.47;7307981;19;131207;-61
2022/01/08 05:02:49;;;;;;;3.05;1.00;;;;;;;18.85;35.30;101131.09;7311520;19;131914;-61
2022/01/08 05:05:16;;;;;;;2.58;1.13;;;;;;;18.85;35.42;101134.72;7307012;19;128924;-62
2022/01/08 05:07:43;;;;;;;2.58;1.02;;;;;;;18.84;35.59;101132.16;7311049;19;131410;-61
2022/01/08 05:10:10;;;;;;;6.10;0.90;;;;;;;18.84;35.20;101126.63;7309531;19;131978;-61
2022/01/08 05:12:37;;;;;;;2.63;1.10;;;;;;;18.84;35.38;101123.84;7310120;19;132593;-61
2022/01/08 05:15:05;;;;;;;2.33;0.80;;;;;;;18.82;35.37;101129.66;7308312;19;129047;-61
2022/01/08 05:17:35;;;;;;;3.88;1.50;;;;;;;18.82;35.39;101131.59;7308793;19;128871;-61
2022/01/08 05:20:11;;;;;;;1.85;0.93;;;;;;;18.83;35.53;101133.28;7311471;19;132662;-61
2022/01/08 05:23:01;;;;;;;1.70;0.80;;;;;;;18.80;35.31;101131.81;7307514;19;131176;-61
2022/01/08 05:25:28;;;;;;;3.53;1.02;;;;;;;18.80;35.39;101128.22;7317801;19;130410;-61
2022/01/08 05:27:56;;;;;;;2.45;1.00;;;;;;;18.79;35.42;101130.13;7313520;19;128879;-61
2022/01/08 05:30:24;;;;;;;2.80;0.95;;;;;;;18.77;35.33;101132.28;7316771;19;132250;-62
2022/01/08 05:32:51;;;;;;;1.95;1.10;;;;;;;18.78;35.11;101133.97;7315027;19;132564;-61
2022/01/08 05:35:19;;;;;;;4.65;1.30;;;;;;;18.76;35.22;101130.63;7315564;19;131269;-61
2022/01/08 05:37:46;;;;;;;2.08;0.82;;;;;;;18.75;35.41;101129.78;7317311;19;129044;-61
2022/01/08 05:40:13;;;;;;;2.67;0.90;;;;;;;18.74;35.51;101130.84;7312710;19;131403;-62
2022/01/08 05:42:40;;;;;;;1.73;0.90;;;;;;;18.73;35.25;101126.41;7317325;19;131163;-61
2022/01/08 05:45:08;;;;;;;2.95;1.05;;;;;;;18.72;35.26;101124.72;7313652;19;129427;-61
2022/01/08 05:47:35;;;;;;;2.95;1.00;;;;;;;18.72;35.23;101138.56;7317705;19;129531;-61
2022/01/08 05:50:04;;;;;;;1.17;0.80;;;;;;;18.70;35.14;101138.00;7317176;19;131119;-61
2022/01/08 05:52:31;;;;;;;1.80;0.82;;;;;;;18.70;35.13;101143.53;7316775;19;131719;-61
2022/01/08 05:54:57;;;;;;;2.03;0.95;;;;;;;18.68;35.09;101142.91;7313522;19;129359;-61
2022/01/08 05:57:24;;;;;;;1.48;0.80;;;;;;;18.67;35.10;101152.31;7313232;19;132006;-62
2022/01/08 05:59:51;;;;;;;1.77;0.80;;;;;;;18.67;35.05;101160.63;7316456;19;131107;-62
2022/01/08 06:02:18;;;;;;;1.92;0.90;;;;;;;18.67;35.44;101155.09;7313920;19;131043;-61
2022/01/08 06:04:44;;;;;;;2.75;1.00;;;;;;;18.66;35.18;101158.94;7317353;19;129028;-61
2022/01/08 06:07:13;;;;;;;2.63;0.90;;;;;;;18.67;35.08;101157.00;7312459;19;130892;-61
2022/01/08 06:09:40;;;;;;;3.17;1.20;;;;;;;18.66;35.47;101152.53;7315799;19;131179;-61
2022/01/08 06:12:08;;;;;;;1.25;0.82;;;;;;;18.66;35.34;101153.41;7314399;19;131952;-61
2022/01/08 06:14:35;;;;;;;2.15;1.00;;;;;;;18.65;35.46;101165.56;7313388;19;128939;-61
2022/01/08 06:17:02;;;;;;;2.70;1.00;;;;;;;18.65;35.37;101165.56;7316970;19;128933;-61
2022/01/08 06:19:29;;;;;;;2.58;1.00;;;;;;;18.64;35.41;101161.09;7313655;19;131077;-61
2022/01/08 06:21:55;;;;;;;1.42;0.82;;;;;;;18.63;35.06;101148.34;7317404;19;132566;-61
2022/01/08 06:24:22;;;;;;;2.22;1.17;;;;;;;18.63;35.12;101150.28;7311503;19;129096;-61
2022/01/08 06:26:49;;;;;;;2.22;0.90;;;;;;;18.61;35.05;101150.50;7316074;19;128971;-61
2022/01/08 06:29:16;;;;;;;2.22;0.95;;;;;;;18.60;35.29;101151.56;7312885;19;131638;-61
2022/01/08 06:31:42;;;;;;;3.17;0.80;;;;;;;18.59;35.08;101144.34;7315617;19;131291;-61
2022/01/08 06:34:09;;;;;;;0.85;0.70;;;;;;;18.58;35.13;101140.75;7313896;19;128863;-61
2022/01/08 06:36:36;;;;;;;2.92;1.17;;;;;;;18.57;35.44;101138.22;7312527;19;132296;-61
2022/01/08 06:39:03;;;;;;;2.80;0.93;;;;;;;18.56;35.03;101131.00;7316053;19;131947;-61
2022/01/08 06:41:30;;;;;;;1.65;0.90;;;;;;;18.55;35.09;101121.81;7312193;19;131796;-62
2022/01/08 06:43:57;;;;;;;1.77;0.82;;;;;;;18.55;35.46;101130.13;7317011;19;128673;-61
2022/01/08 06:46:25;;;;;;;1.73;0.88;;;;;;;18.55;35.04;101135.69;7313243;19;129754;-61
2022/01/08 06:48:51;;;;;;;2.00;0.82;;;;;;;18.53;35.38;101132.31;7313730;19;131258;-63
2022/01/08 06:51:18;;;;;;;1.90;0.80;;;;;;;18.54;35.44;101128.44;7311877;19;130915;-61
2022/01/08 06:53:45;;;;;;;2.88;0.90;;;;;;;18.54;35.03;101127.63;7314758;19;129179;-61
2022/01/08 06:56:12;;;;;;;1.40;0.90;;;;;;;18.52;35.34;101125.09;7315374;19;129131;-61
2022/01/08 06:58:41;;;;;;;1.95;1.00;;;;;;;18.52;35.43;101127.88;7312591;19;131259;-61
2022/01/08 07:01:08;;;;;;;2.67;1.08;;;;;;;18.51;35.23;101119.78;7315780;19;131046;-61
2022/01/08 07:03:35;;;;;;;1.55;0.80;;;;;;;18.51;35.10;101122.56;7313141;19;128953;-61
2022/01/08 07:06:02;;;;;;;2.28;1.15;;;;;;;18.52;35.39;101125.09;7315746;19;129123;-61
2022/01/08 07:08:28;;;;;;;2.78;1.30;;;;;;;18.56;34.93;101131.81;7310382;19;131136;-62
2022/01/08 07:10:55;;;;;;;2.60;1.10;;;;;;;18.65;35.04;101123.13;7315901;19;131155;-61
2022/01/08 07:13:22;;;;;;;2.13;1.05;;;;;;;18.80;35.02;101125.44;7312180;19;129169;-61
2022/01/08 07:15:49;;;;;;;2.17;0.68;;;;;;;18.99;34.57;101134.47;7314717;19;129068;-61
2022/01/08 07:18:15;;;;;;;1.50;0.70;;;;;;;19.24;34.46;101117.53;7310301;19;132444;-61
2022/01/08 07:20:42;;;;;;;1.60;0.60;;;;;;;19.52;34.36;101127.81;7312845;19;131953;-62
2022/01/08 07:23:09;;;;;;;1.80;0.90;;;;;;;19.85;33.83;101125.34;7315362;19;128988;-61
2022/01/08 07:25:35;;;;;;;1.70;0.82;;;;;;;20.15;33.61;101127.03;7313022;19;130736;-62
2022/01/08 07:28:02;;;;;;;1.65;1.00;;;;;;;20.45;32.94;101120.28;7314097;19;131372;-61
2022/01/08 07:30:29;;;;;;;1.90;0.95;;;;;;;20.73;33.07;101118.47;7311034;19;131082;-62
2022/01/08 07:32:56;;;;;;;1.35;0.63;;;;;;;20.95;32.80;101115.75;7317305;19;129963;-61
2022/01/08 07:35:23;;;;;;;2.35;1.08;;;;;;;21.13;32.12;101100.69;7310155;19;129098;-61
2022/01/08 07:37:51;;;;;;;1.10;0.65;;;;;;;21.24;31.96;101106.38;7315187;19;131139;-62
2022/01/08 07:40:20;;;;;;;1.38;0.80;;;;;;;21.31;32.25;101101.44;7311285;19;131162;-61
2022/01/08 07:42:47;;;;;;;2.42;0.90;;;;;;;21.40;31.85;101107.38;7311872;19;129021;-61
2022/01/08 07:45:16;;;;;;;1.98;0.73;;;;;;;21.42;31.59;101097.66;7310314;19;129005;-61
2022/01/08 07:47:43;;;;;;;2.15;1.10;;;;;;;21.42;31.56;101103.22;7308386;19;135581;-62
2022/01/08 07:50:10;;;;;;;3.22;1.00;;;;;;;21.37;31.71;101104.00;7312284;19;131080;-61
2022/01/08 07:52:37;;;;;;;1.30;0.68;;;;;;;21.33;32.02;101107.59;7311348;19;129111;-61
2022/01/08 07:55:05;;;;;;;1.38;0.70;;;;;;;21.28;32.08;101107.53;7314718;19;129135;-61
2022/01/08 07:57:31;;;;;;;1.73;0.73;;;;;;;21.19;31.63;101105.19;7309498;19;131125;-62
2022/01/08 07:59:58;;;;;;;1.35;0.80;;;;;;;21.12;32.10;101107.34;7313681;19;131178;-62
2022/01/08 08:02:25;;;;;;;2.35;0.90;;;;;;;21.05;31.92;101109.47;7310895;19;128836;-61
2022/01/08 08:04:52;;;;;;;2.10;0.90;;;;;;;20.96;32.05;101106.31;7312313;19;129531;-61
2022/01/08 08:07:38;;;;;;;1.75;0.88;;;;;;;20.90;32.29;101108.19;7314345;19;131224;-61
2022/01/08 08:10:10;;;;;;;2.25;0.90;;;;;;;20.81;32.36;101097.75;7309800;19;131951;-61
2022/01/08 08:12:38;;;;;;;2.13;1.00;;;;;;;20.73;32.18;101096.22;7314094;19;129012;-61
2022/01/08 08:15:06;;;;;;;2.25;0.93;;;;;;;20.66;32.44;101093.63;7310176;19;128886;-61
2022/01/08 08:17:34;;;;;;;1.23;0.77;;;;;;;20.58;32.56;101089.34;7313280;19;132364;-62
2022/01/08 08:20:03;;;;;;;1.88;0.90;;;;;;;20.51;32.51;101093.41;7309288;19;131890;-61
2022/01/08 08:22:30;;;;;;;1.15;0.65;;;;;;;20.45;32.61;101090.56;7312254;19;128880;-62
2022/01/08 08:24:56;;;;;;;1.77;0.80;;;;;;;20.38;32.68;101083.50;7312924;19;129308;-61
2022/01/08 08:27:23;;;;;;;2.00;1.10;;;;;;;20.32;32.47;101073.38;7309555;19;132162;-62
2022/01/08 08:29:50;;;;;;;2.03;0.80;;;;;;;20.24;32.60;101078.28;7311159;19;130945;-61
2022/01/08 08:32:16;;;;;;;1.50;0.80;;;;;;;20.18;33.01;101073.75;7309154;19;128791;-61
2022/01/08 08:34:43;;;;;;;2.80;0.85;;;;;;;20.13;33.18;101076.44;7313609;19;129009;-61
2022/01/08 08:37:10;;;;;;;2.38;0.88;;;;;;;20.08;32.81;101068.00;7308937;19;131493;-61
2022/01/08 08:39:37;;;;;;;3.10;0.90;;;;;;;20.04;33.01;101055.75;7312230;19;137254;-62
2022/01/08 08:42:04;;;;;;;1.52;0.88;;;;;;;20.05;32.84;101063.00;7310064;19;128926;-61
2022/01/08 08:44:31;;;;;;;1.52;0.80;;;;;;;20.07;32.97;101049.66;7312244;19;129924;-61
2022/01/08 08:46:58;;;;;;;2.17;0.90;;;;;;;20.13;33.16;101054.22;7309131;19;131197;-61
2022/01/08 08:49:25;;;;;;;1.58;0.75;;;;;;;20.20;32.92;101049.31;7310875;19;131074;-61
2022/01/08 08:51:53;;;;;;;3.42;0.70;;;;;;;20.30;32.81;101048.66;7310686;19;129132;-61
2022/01/08 08:54:20;;;;;;;1.52;0.85;;;;;;;20.39;32.89;101049.88;7310136;19;129382;-62
2022/01/08 08:56:47;;;;;;;1.25;0.70;;;;;;;20.47;32.78;101045.00;7312114;19;131242;-62
2022/01/08 08:59:14;;;;;;;2.63;1.00;;;;;;;20.54;32.26;101043.72;7308643;19;132172;-62
2022/01/08 09:01:40;;;;;;;3.42;1.15;;;;;;;20.59;31.98;101029.88;7317197;19;129648;-62
2022/01/08 09:04:07;;;;;;;9.32;2.20;;;;;;;20.62;31.78;101034.06;7315072;19;128933;-62
2022/01/08 09:06:34;;;;;;;13.73;1.85;;;;;;;20.66;31.33;101034.44;7318540;19;131175;-63
2022/01/08 09:09:01;;;;;;;10.50;1.50;;;;;;;20.68;31.50;101032.22;7314667;19;131450;-61
2022/01/08 09:11:28;;;;;;;9.60;1.92;;;;;;;20.71;31.19;101028.91;7317546;19;128780;-62
2022/01/08 09:13:55;;;;;;;8.20;1.40;;;;;;;20.74;31.57;101026.44;7311072;19;131258;-61
2022/01/08 09:16:21;;;;;;;15.20;2.08;;;;;;;20.78;31.16;101025.97;7315056;19;130957;-62
2022/01/08 09:18:49;;;;;;;12.38;1.83;;;;;;;20.81;31.34;101019.91;7317706;19;131441;-62
2022/01/08 09:21:16;;;;;;;9.45;1.95;;;;;;;20.83;31.12;101018.53;7313678;19;129777;-62
2022/01/08 09:23:42;;;;;;;13.50;2.05;;;;;;;20.86;31.19;101018.03;7317744;19;129079;-62
2022/01/08 09:26:09;;;;;;;14.07;1.65;;;;;;;20.87;30.92;101008.59;7313742;19;131141;-62
2022/01/08 09:28:37;;;;;;;20.13;1.83;;;;;;;20.93;31.21;101020.59;7317167;19;130970;-63
2022/01/08 09:31:03;;;;;;;15.20;1.80;;;;;;;20.97;31.39;101007.03;7314391;19;129455;-62
2022/01/08 09:33:31;;;;;;;11.25;1.92;;;;;;;21.01;31.14;101005.41;7316796;19;129137;-61
2022/01/08 09:35:59;;;;;;;8.98;1.45;;;;;;;21.05;31.15;101000.97;7315262;19;131453;-62
2022/01/08 09:38:26;;;;;;;8.40;1.63;;;;;;;21.08;31.00;100992.13;7316074;19;131042;-62
2022/01/08 09:40:53;;;;;;;13.45;1.80;;;;;;;21.11;31.26;100986.03;7315445;19;128877;-62
2022/01/08 09:43:20;;;;;;;11.88;1.80;;;;;;;21.14;31.13;100982.75;7314454;19;129188;-62
2022/01/08 09:45:47;;;;;;;5.28;1.30;;;;;;;21.18;30.96;100986.66;7318928;19;130756;-62
2022/01/08 09:48:14;;;;;;;8.98;1.58;;;;;;;21.21;31.30;100983.38;7313530;19;131016;-62
2022/01/08 09:50:43;;;;;;;5.38;1.45;;;;;;;21.25;31.39;100974.50;7315723;19;128925;-62
2022/01/08 09:53:10;;;;;;;9.98;1.52;;;;;;;21.28;31.19;100968.41;7312638;19;129018;-62
2022/01/08 09:55:37;;;;;;;7.20;1.23;;;;;;;21.31;31.33;100956.72;7316140;19;132019;-63
2022/01/08 09:58:04;;;;;;;7.75;1.85;;;;;;;21.32;31.08;100944.50;7314493;19;132365;-62
2022/01/08 10:00:34;;;;;;;5.25;1.15;;;;;;;21.33;31.40;100937.84;7315652;19;129095;-62
2022/01/08 10:03:20;;;;;;;6.07;1.20;;;;;;;21.34;30.91;100934.81;7316732;19;130230;-62
2022/01/08 10:05:55;;;;;;;8.15;1.35;;;;;;;21.34;31.34;100936.72;7311667;19;131273;-63
2022/01/08 10:08:42;;;;;;;16.65;2.25;;;;;;;21.33;31.53;100932.28;7314674;19;130864;-62
2022/01/08 10:11:10;;;;;;;15.55;1.85;;;;;;;21.32;31.19;100916.69;7311328;19;128827;-63
2022/01/08 10:13:42;;;;;;;17.75;2.03;;;;;;;21.32;31.26;100916.69;7314413;19;129062;-62
2022/01/08 10:18:55;;;;;;;13.00;2.33;;;;;;;21.30;31.49;100899.41;7310749;19;133032;-62
2022/01/08 10:21:28;;;;;;;20.60;2.30;;;;;;;21.29;31.41;100887.44;7314060;19;128972;-62
2022/01/08 10:24:00;;;;;;;15.52;1.92;;;;;;;21.30;31.33;100878.00;7309152;19;129118;-62
2022/01/08 10:26:33;;;;;;;12.25;2.25;;;;;;;21.30;30.99;100863.22;7314766;19;131305;-62
2022/01/08 10:29:05;;;;;;;16.80;2.10;;;;;;;21.30;31.15;100852.09;7313915;19;131047;-62
2022/01/08 10:31:43;;;;;;;10.45;1.50;;;;;;;21.30;30.87;100854.88;7313089;19;129072;-63
2022/01/08 10:34:30;;;;;;;13.60;2.03;;;;;;;21.30;30.71;100843.75;7315614;19;129301;-62
2022/01/08 10:37:03;;;;;;;11.40;1.73;;;;;;;21.30;31.12;100840.97;7311016;19;132185;-62
2022/01/08 10:39:33;;;;;;;9.98;2.22;;;;;;;21.30;30.98;100850.19;7316965;19;132904;-62
2022/01/08 10:42:11;;;;;;;12.85;1.38;;;;;;;21.32;30.99;100838.75;7312908;19;129366;-62
2022/01/08 10:44:39;;;;;;;16.17;2.28;;;;;;;21.32;30.88;100835.97;7314555;19;129129;-62
2022/01/08 10:47:13;;;;;;;11.55;2.42;;;;;;;21.32;30.64;100831.28;7313999;19;131163;-62
2022/01/08 10:49:44;;;;;;;8.70;1.80;;;;;;;21.32;30.72;100827.63;7312882;19;131038;-62
2022/01/08 10:52:14;;;;;;;6.32;1.90;;;;;;;21.32;30.32;100819.28;7315401;19;128951;-62
2022/01/08 10:54:56;;;;;;;8.70;1.70;;;;;;;21.33;30.72;100804.28;7311490;19;129686;-62
2022/01/08 10:57:34;;;;;;;8.25;2.10;;;;;;;21.33;30.32;100791.22;7315362;19;131252;-62
2022/01/08 11:00:06;;;;;;;5.95;1.70;;;;;;;21.33;30.31;100798.69;7311877;19;131132;-62
2022/01/08 11:02:33;;;;;;;8.43;1.77;;;;;;;21.32;30.16;100785.91;7310174;19;130310;-62
2022/01/08 11:05:04;;;;;;;12.43;1.75;;;;;;;21.33;30.10;100776.44;7315883;19;129871;-62
2022/01/08 11:07:32;;;;;;;8.45;1.60;;;;;;;21.33;30.39;100777.31;7311259;19;131311;-62
2022/01/08 11:10:08;;;;;;;11.88;1.55;;;;;;;21.34;30.37;100775.34;7316327;19;131917;-62
2022/01/08 11:12:40;;;;;;;8.07;1.13;;;;;;;21.33;30.05;100773.66;7310999;19;129622;-60
2022/01/08 11:18:00;;;;;;;8.88;1.30;;;;;;;21.34;30.18;100753.06;7311446;19;131320;-59
2022/01/08 11:20:47;;;;;;;4.47;1.23;;;;;;;21.33;30.03;100737.50;7310120;19;135093;-60
2022/01/08 11:23:22;;;;;;;5.63;1.30;;;;;;;21.33;29.88;100737.50;7313767;19;130740;-59
2022/01/08 11:25:55;;;;;;;10.52;1.55;;;;;;;21.30;29.80;100735.22;7310417;19;131574;-59
2022/01/08 11:28:31;;;;;;;8.98;1.60;;;;;;;21.25;29.83;100724.09;7314524;19;131226;-60
2022/01/08 11:31:02;;;;;;;4.90;1.45;;;;;;;21.20;29.41;100711.00;7311615;19;131528;-59
2022/01/08 11:33:33;;;;;;;7.93;1.27;;;;;;;21.17;29.30;100712.34;7312926;19;129229;-59
2022/01/08 11:36:00;;;;;;;9.32;1.00;;;;;;;21.15;29.42;100697.91;7313707;19;132019;-59
2022/01/08 11:38:28;;;;;;;8.80;1.50;;;;;;;21.13;29.54;100694.53;7311628;19;131965;-60
2022/01/08 11:40:58;;;;;;;7.57;1.40;;;;;;;21.10;29.05;100678.38;7314721;19;131535;-59